Time;durP1;ratioP1;P1;durP2;ratioP2;P2;SDS_P1;SDS_P2;PMS_P1;PMS_P2;Temp;Humidity;BMP_temperature;BMP_pressure;BME280_temperature;BME280_humidity;BME280_pressure;Samples;Min_cycle;Max_cycle;Signal;HPM_P1;HPM_P2
2021/01/25 00:01:38;;;;;;;5.57;3.50;;;;;;;;;;5106876;28;20036;-59
2021/01/25 00:04:04;;;;;;;8.25;3.30;;;;;;;;;;5108741;28;20039;-60
2021/01/25 00:06:29;;;;;;;6.13;3.40;;;;;;;;;;5108399;28;20156;-59
2021/01/25 00:08:54;;;;;;;5.47;3.42;;;;;;;;;;5110034;28;20036;-59
2021/01/25 00:11:20;;;;;;;6.13;2.53;;;;;;;;;;5109385;28;20368;-59
2021/01/25 00:13:45;;;;;;;5.70;2.88;;;;;;;;;;5110571;28;20039;-59
2021/01/25 00:16:10;;;;;;;5.70;2.67;;;;;;;;;;5109242;28;20036;-59
2021/01/25 00:18:35;;;;;;;5.65;3.15;;;;;;;;;;5105519;28;20042;-58
2021/01/25 00:21:01;;;;;;;6.70;2.88;;;;;;;;;;5106684;28;20032;-58
2021/01/25 00:23:26;;;;;;;7.55;3.15;;;;;;;;;;5104620;28;20061;-58
2021/01/25 00:25:51;;;;;;;6.78;3.38;;;;;;;;;;5111509;28;20036;-58
2021/01/25 00:28:17;;;;;;;11.00;3.13;;;;;;;;;;5103764;28;20077;-59
2021/01/25 00:30:42;;;;;;;5.93;2.90;;;;;;;;;;5110115;28;20557;-60
2021/01/25 00:33:07;;;;;;;5.65;2.92;;;;;;;;;;5110101;28;20028;-60
2021/01/25 00:35:33;;;;;;;6.00;3.40;;;;;;;;;;5110164;28;20027;-59
2021/01/25 00:37:58;;;;;;;5.18;3.13;;;;;;;;;;5110685;28;20112;-60
2021/01/25 00:40:24;;;;;;;6.05;2.97;;;;;;;;;;5102935;28;20601;-60
2021/01/25 00:42:49;;;;;;;5.40;3.00;;;;;;;;;;5103710;28;20687;-60
2021/01/25 00:45:16;;;;;;;6.80;3.20;;;;;;;;;;5107967;28;20110;-60
2021/01/25 00:47:42;;;;;;;6.47;3.30;;;;;;;;;;5099358;28;20068;-60
2021/01/25 00:50:08;;;;;;;7.53;3.05;;;;;;;;;;5105845;28;20039;-60
2021/01/25 00:52:33;;;;;;;4.38;2.15;;;;;;;;;;5105571;28;20042;-60
2021/01/25 00:54:59;;;;;;;6.50;3.13;;;;;;;;;;5108559;28;20028;-60
2021/01/25 00:57:24;;;;;;;6.15;2.90;;;;;;;;;;5108024;28;20036;-58
2021/01/25 00:59:49;;;;;;;5.75;3.45;;;;;;;;;;5106738;28;20063;-58
2021/01/25 01:02:15;;;;;;;7.00;3.03;;;;;;;;;;5108416;28;20372;-59
2021/01/25 01:04:40;;;;;;;7.13;3.20;;;;;;;;;;5110466;28;20019;-59
2021/01/25 01:07:06;;;;;;;5.95;2.63;;;;;;;;;;5109539;28;20493;-59
2021/01/25 01:09:31;;;;;;;5.90;2.92;;;;;;;;;;5109830;28;20092;-60
2021/01/25 01:11:56;;;;;;;7.72;3.58;;;;;;;;;;5110758;28;20039;-60
2021/01/25 01:14:23;;;;;;;5.75;2.75;;;;;;;;;;5109979;28;20020;-60
2021/01/25 01:16:48;;;;;;;5.15;2.40;;;;;;;;;;5109676;28;20052;-60
2021/01/25 01:19:13;;;;;;;6.50;2.03;;;;;;;;;;5109517;28;20062;-60
2021/01/25 01:21:39;;;;;;;5.80;2.90;;;;;;;;;;5109894;28;20023;-60
2021/01/25 01:24:05;;;;;;;4.57;2.47;;;;;;;;;;5110753;28;20473;-61
2021/01/25 01:26:30;;;;;;;8.20;2.90;;;;;;;;;;5107427;28;20031;-60
2021/01/25 01:28:56;;;;;;;5.20;2.72;;;;;;;;;;5110333;28;20461;-60
2021/01/25 01:31:21;;;;;;;7.63;2.92;;;;;;;;;;5110274;28;20065;-60
2021/01/25 01:33:46;;;;;;;6.60;2.60;;;;;;;;;;5109606;28;20039;-60
2021/01/25 01:36:12;;;;;;;5.68;3.05;;;;;;;;;;5109390;28;20020;-60
2021/01/25 01:38:38;;;;;;;8.18;2.92;;;;;;;;;;5110324;28;20115;-60
2021/01/25 01:41:04;;;;;;;6.97;2.63;;;;;;;;;;5110800;28;20466;-60
2021/01/25 01:43:29;;;;;;;6.50;3.38;;;;;;;;;;5109147;28;20075;-60
2021/01/25 01:45:55;;;;;;;7.60;3.20;;;;;;;;;;5109970;28;20036;-60
2021/01/25 01:48:21;;;;;;;5.95;3.05;;;;;;;;;;5109848;28;20411;-60
2021/01/25 01:50:46;;;;;;;5.60;3.42;;;;;;;;;;5110424;28;20100;-60
2021/01/25 01:53:12;;;;;;;6.70;2.90;;;;;;;;;;5110119;28;20080;-60
2021/01/25 01:55:37;;;;;;;6.10;3.45;;;;;;;;;;5109248;28;20368;-60
2021/01/25 01:58:03;;;;;;;5.85;2.80;;;;;;;;;;5110321;28;20072;-60
2021/01/25 02:00:30;;;;;;;6.18;3.08;;;;;;;;;;5109915;28;20448;-60
2021/01/25 02:02:55;;;;;;;5.85;3.67;;;;;;;;;;5107659;28;20078;-60
2021/01/25 02:05:22;;;;;;;8.10;3.53;;;;;;;;;;5109089;28;20488;-60
2021/01/25 02:07:52;;;;;;;7.35;2.70;;;;;;;;;;5109702;28;20054;-60
2021/01/25 02:10:19;;;;;;;10.68;2.90;;;;;;;;;;5109797;28;20063;-60
2021/01/25 02:12:47;;;;;;;7.75;3.22;;;;;;;;;;5108656;28;20038;-60
2021/01/25 02:15:13;;;;;;;5.93;2.85;;;;;;;;;;5109637;28;20035;-60
2021/01/25 02:17:38;;;;;;;12.40;3.40;;;;;;;;;;5107862;28;20099;-60
2021/01/25 02:20:04;;;;;;;11.07;3.50;;;;;;;;;;5109642;28;20456;-60
2021/01/25 02:22:35;;;;;;;8.52;3.65;;;;;;;;;;5108929;28;20039;-60
2021/01/25 02:25:08;;;;;;;;;;;;;;;;;;5110292;28;20143;-59
2021/01/25 02:27:36;;;;;;;9.43;3.83;;;;;;;;;;5109078;28;19915;-59
2021/01/25 02:30:08;;;;;;;6.40;3.58;;;;;;;;;;5109109;28;20055;-59
2021/01/25 02:32:35;;;;;;;10.57;3.78;;;;;;;;;;5108753;28;20140;-60
2021/01/25 02:35:04;;;;;;;6.30;3.17;;;;;;;;;;5107923;28;20410;-60
2021/01/25 02:37:30;;;;;;;7.28;3.53;;;;;;;;;;5108595;28;20031;-60
2021/01/25 02:39:57;;;;;;;7.43;3.70;;;;;;;;;;5091224;28;20418;-59
2021/01/25 02:42:24;;;;;;;5.10;3.30;;;;;;;;;;5108631;28;20063;-59
2021/01/25 02:44:50;;;;;;;4.85;2.75;;;;;;;;;;5109465;28;20035;-60
2021/01/25 02:47:19;;;;;;;5.30;3.13;;;;;;;;;;5108796;28;20060;-59
2021/01/25 02:49:45;;;;;;;6.15;3.28;;;;;;;;;;5109274;28;20039;-59
2021/01/25 02:52:14;;;;;;;7.07;3.00;;;;;;;;;;5109658;28;20038;-59
2021/01/25 02:54:41;;;;;;;9.05;4.15;;;;;;;;;;5109349;28;20024;-59
2021/01/25 02:57:10;;;;;;;5.50;3.53;;;;;;;;;;5106896;28;20073;-60
2021/01/25 02:59:37;;;;;;;8.43;3.53;;;;;;;;;;5109284;28;20072;-60
2021/01/25 03:02:04;;;;;;;6.13;3.50;;;;;;;;;;5109426;28;20107;-59
2021/01/25 03:04:30;;;;;;;7.35;3.47;;;;;;;;;;5107857;28;20031;-59
2021/01/25 03:06:56;;;;;;;7.32;3.70;;;;;;;;;;5109373;28;20043;-60
2021/01/25 03:09:22;;;;;;;5.50;2.85;;;;;;;;;;5108270;28;20032;-59
2021/01/25 03:11:47;;;;;;;6.13;3.45;;;;;;;;;;5106883;28;20708;-60
2021/01/25 03:14:13;;;;;;;7.25;3.42;;;;;;;;;;5108986;28;20065;-60
2021/01/25 03:16:38;;;;;;;5.68;3.30;;;;;;;;;;5108921;28;20031;-60
2021/01/25 03:19:04;;;;;;;7.70;3.65;;;;;;;;;;5109238;28;20042;-59
2021/01/25 03:21:32;;;;;;;6.80;3.67;;;;;;;;;;5108088;28;20038;-60
2021/01/25 03:23:58;;;;;;;6.22;3.70;;;;;;;;;;5108604;28;20180;-60
2021/01/25 03:26:23;;;;;;;6.25;3.13;;;;;;;;;;5107679;28;20118;-59
2021/01/25 03:28:48;;;;;;;5.07;3.60;;;;;;;;;;5108262;28;20444;-60
2021/01/25 03:31:14;;;;;;;5.75;3.67;;;;;;;;;;5111049;28;20034;-60
2021/01/25 03:33:39;;;;;;;6.00;3.50;;;;;;;;;;5107087;28;20043;-59
2021/01/25 03:36:05;;;;;;;6.20;3.13;;;;;;;;;;5111806;28;20034;-60
2021/01/25 03:38:30;;;;;;;6.10;3.40;;;;;;;;;;5112396;28;20103;-60
2021/01/25 03:40:55;;;;;;;6.72;3.55;;;;;;;;;;5112715;28;20503;-60
2021/01/25 03:43:21;;;;;;;5.88;3.95;;;;;;;;;;5111597;28;20042;-60
2021/01/25 03:45:46;;;;;;;8.18;3.97;;;;;;;;;;5111895;28;20035;-60
2021/01/25 03:48:11;;;;;;;9.20;4.20;;;;;;;;;;5112541;28;20027;-60
2021/01/25 03:50:37;;;;;;;6.47;3.72;;;;;;;;;;5111588;28;20119;-60
2021/01/25 03:53:03;;;;;;;6.43;3.92;;;;;;;;;;5112787;28;20092;-60
2021/01/25 03:55:28;;;;;;;7.68;4.40;;;;;;;;;;5110120;28;20469;-59
2021/01/25 03:57:54;;;;;;;7.72;4.18;;;;;;;;;;5110202;28;20036;-59
2021/01/25 04:00:20;;;;;;;6.07;3.60;;;;;;;;;;5109995;28;20041;-59
2021/01/25 04:02:45;;;;;;;5.60;3.50;;;;;;;;;;5111593;28;20536;-59
2021/01/25 04:05:11;;;;;;;6.32;3.80;;;;;;;;;;5112455;28;20035;-59
2021/01/25 04:07:36;;;;;;;6.88;4.25;;;;;;;;;;5111797;28;20039;-59
2021/01/25 04:10:05;;;;;;;6.22;3.80;;;;;;;;;;5111289;28;20031;-59
2021/01/25 04:12:31;;;;;;;5.93;3.83;;;;;;;;;;5112148;27;20062;-59
2021/01/25 04:14:56;;;;;;;8.90;4.68;;;;;;;;;;5112120;28;20067;-59
2021/01/25 04:17:23;;;;;;;8.55;4.85;;;;;;;;;;5110930;28;20035;-60
2021/01/25 04:19:49;;;;;;;11.45;4.90;;;;;;;;;;5112111;28;20383;-60
2021/01/25 04:22:14;;;;;;;6.97;4.53;;;;;;;;;;5112356;28;20093;-59
2021/01/25 04:24:40;;;;;;;6.90;4.55;;;;;;;;;;5111414;28;20047;-59
2021/01/25 04:27:10;;;;;;;7.82;4.55;;;;;;;;;;5111070;28;20508;-59
2021/01/25 04:29:36;;;;;;;8.82;4.65;;;;;;;;;;5111852;28;20035;-59
2021/01/25 04:32:01;;;;;;;12.85;4.75;;;;;;;;;;5111744;28;20038;-59
2021/01/25 04:34:27;;;;;;;7.82;5.15;;;;;;;;;;5110521;28;20039;-59
2021/01/25 04:36:52;;;;;;;7.63;5.07;;;;;;;;;;5111398;28;20372;-59
2021/01/25 04:39:17;;;;;;;6.25;4.53;;;;;;;;;;5111613;28;20521;-59
2021/01/25 04:41:43;;;;;;;8.73;4.78;;;;;;;;;;5111433;28;20636;-59
2021/01/25 04:44:10;;;;;;;6.85;4.63;;;;;;;;;;5109925;28;20031;-60
2021/01/25 04:46:36;;;;;;;11.93;5.60;;;;;;;;;;5111065;28;20078;-59
2021/01/25 04:49:01;;;;;;;8.25;5.65;;;;;;;;;;5111953;28;20042;-59
2021/01/25 04:51:27;;;;;;;7.38;4.95;;;;;;;;;;5110151;28;20043;-59
2021/01/25 04:53:54;;;;;;;7.22;4.78;;;;;;;;;;5111757;28;20064;-59
2021/01/25 04:56:20;;;;;;;9.40;5.30;;;;;;;;;;5110568;28;20046;-59
2021/01/25 04:58:46;;;;;;;7.95;5.72;;;;;;;;;;5111597;28;20028;-59
2021/01/25 05:01:12;;;;;;;8.73;5.65;;;;;;;;;;5109770;28;20098;-59
2021/01/25 05:03:37;;;;;;;10.25;6.40;;;;;;;;;;5110583;28;20681;-59
2021/01/25 05:06:03;;;;;;;11.05;6.43;;;;;;;;;;5111201;28;20028;-59
2021/01/25 05:08:28;;;;;;;8.63;5.35;;;;;;;;;;5110069;28;20035;-59
2021/01/25 05:10:54;;;;;;;11.32;5.63;;;;;;;;;;5111491;28;20453;-59
2021/01/25 05:13:24;;;;;;;10.20;5.53;;;;;;;;;;5110942;28;20089;-59
2021/01/25 05:15:52;;;;;;;8.98;5.85;;;;;;;;;;5110510;28;20476;-59
2021/01/25 05:18:22;;;;;;;8.32;5.45;;;;;;;;;;5110285;28;20353;-59
2021/01/25 05:20:56;;;;;;;7.63;5.78;;;;;;;;;;5110969;28;20058;-59
2021/01/25 05:23:22;;;;;;;7.72;5.32;;;;;;;;;;5110163;28;20137;-59
2021/01/25 05:25:48;;;;;;;9.77;6.32;;;;;;;;;;5109836;28;20192;-59
2021/01/25 05:28:16;;;;;;;10.57;6.07;;;;;;;;;;5110661;28;20027;-59
2021/01/25 05:30:42;;;;;;;7.85;5.70;;;;;;;;;;5110797;28;20031;-59
2021/01/25 05:33:07;;;;;;;10.05;6.13;;;;;;;;;;5109871;28;20039;-59
2021/01/25 05:35:35;;;;;;;13.25;5.60;;;;;;;;;;5108721;28;20051;-59
2021/01/25 05:38:03;;;;;;;9.65;5.72;;;;;;;;;;5110558;28;20027;-59
2021/01/25 05:40:30;;;;;;;11.90;6.25;;;;;;;;;;5109496;28;20517;-60
2021/01/25 05:42:57;;;;;;;11.02;6.18;;;;;;;;;;5106652;28;20063;-59
2021/01/25 05:45:24;;;;;;;7.75;5.70;;;;;;;;;;5108933;28;20047;-59
2021/01/25 05:47:51;;;;;;;24.40;7.78;;;;;;;;;;5110184;28;20031;-59
2021/01/25 05:50:51;;;;;;;8.85;5.95;;;;;;;;;;5108762;28;20932;-59
2021/01/25 05:53:17;;;;;;;12.50;6.93;;;;;;;;;;5066806;28;20048;-59
2021/01/25 05:55:43;;;;;;;12.52;6.97;;;;;;;;;;5101025;28;20046;-58
2021/01/25 05:58:08;;;;;;;13.15;6.65;;;;;;;;;;5108325;28;20066;-61
2021/01/25 06:00:34;;;;;;;9.70;6.97;;;;;;;;;;5110122;28;20066;-59
2021/01/25 06:03:01;;;;;;;12.68;7.05;;;;;;;;;;5110413;28;20114;-60
2021/01/25 06:05:29;;;;;;;12.02;6.90;;;;;;;;;;5109747;28;20027;-59
2021/01/25 06:08:02;;;;;;;9.73;6.72;;;;;;;;;;5107518;28;20131;-59
2021/01/25 06:10:37;;;;;;;11.25;6.43;;;;;;;;;;5109260;28;20035;-59
2021/01/25 06:13:13;;;;;;;8.65;6.50;;;;;;;;;;5108191;28;20031;-59
2021/01/25 06:15:40;;;;;;;11.82;6.35;;;;;;;;;;5108270;28;20053;-59
2021/01/25 06:18:06;;;;;;;10.27;7.15;;;;;;;;;;5110065;28;20055;-59
2021/01/25 06:20:33;;;;;;;12.13;7.07;;;;;;;;;;5108344;28;20506;-59
2021/01/25 06:22:59;;;;;;;11.23;7.03;;;;;;;;;;5109530;28;20023;-59
2021/01/25 06:25:25;;;;;;;10.70;7.13;;;;;;;;;;5108119;28;20043;-59
2021/01/25 06:27:55;;;;;;;12.32;7.72;;;;;;;;;;5108755;28;20028;-58
2021/01/25 06:30:23;;;;;;;11.95;10.00;;;;;;;;;;5108612;28;20028;-59
2021/01/25 06:32:51;;;;;;;13.23;7.63;;;;;;;;;;5107040;28;20504;-60
2021/01/25 06:35:17;;;;;;;13.20;7.97;;;;;;;;;;5107634;28;20043;-58
2021/01/25 06:37:42;;;;;;;13.90;7.32;;;;;;;;;;5109471;28;20028;-59
2021/01/25 06:40:10;;;;;;;11.90;8.43;;;;;;;;;;5110085;28;20983;-58
2021/01/25 06:42:38;;;;;;;17.30;8.05;;;;;;;;;;5107563;28;20568;-59
2021/01/25 06:45:05;;;;;;;14.25;7.32;;;;;;;;;;5108110;28;20031;-59
2021/01/25 06:47:31;;;;;;;10.30;6.50;;;;;;;;;;5108952;28;20495;-60
2021/01/25 06:49:58;;;;;;;14.57;8.38;;;;;;;;;;5109456;28;20035;-58
2021/01/25 06:52:26;;;;;;;14.07;7.40;;;;;;;;;;5108365;28;20046;-59
2021/01/25 06:54:58;;;;;;;15.57;7.47;;;;;;;;;;5103565;28;20042;-59
2021/01/25 06:57:26;;;;;;;9.77;6.57;;;;;;;;;;5108104;28;20032;-58
2021/01/25 06:59:51;;;;;;;9.85;7.18;;;;;;;;;;5109393;28;20341;-59
2021/01/25 07:02:19;;;;;;;13.15;7.35;;;;;;;;;;5107062;28;20041;-59
2021/01/25 07:04:45;;;;;;;12.98;7.95;;;;;;;;;;5108671;28;20031;-59
2021/01/25 07:07:26;;;;;;;12.48;7.80;;;;;;;;;;5112345;28;20031;-59
2021/01/25 07:09:53;;;;;;;9.10;6.25;;;;;;;;;;5112172;28;20058;-59
2021/01/25 07:12:20;;;;;;;13.70;6.78;;;;;;;;;;5112040;28;20044;-58
2021/01/25 07:14:46;;;;;;;9.75;7.20;;;;;;;;;;5113628;28;20062;-58
2021/01/25 07:17:11;;;;;;;9.80;7.57;;;;;;;;;;5109482;28;20055;-58
2021/01/25 07:19:37;;;;;;;14.82;7.28;;;;;;;;;;5111757;28;20058;-58
2021/01/25 07:22:03;;;;;;;11.45;6.82;;;;;;;;;;5112536;28;20034;-59
2021/01/25 07:24:29;;;;;;;14.48;7.80;;;;;;;;;;5112865;28;20165;-58
2021/01/25 07:26:56;;;;;;;13.70;7.20;;;;;;;;;;5111713;28;20098;-58
2021/01/25 07:29:23;;;;;;;13.60;7.40;;;;;;;;;;5112578;28;20034;-58
2021/01/25 07:31:50;;;;;;;11.63;7.15;;;;;;;;;;5112999;28;20140;-58
2021/01/25 07:34:15;;;;;;;14.02;7.47;;;;;;;;;;5112912;28;20084;-58
2021/01/25 07:36:41;;;;;;;15.32;7.55;;;;;;;;;;5110375;28;20440;-59
2021/01/25 07:39:08;;;;;;;14.57;6.95;;;;;;;;;;5111024;28;20027;-59
2021/01/25 07:41:35;;;;;;;11.07;7.60;;;;;;;;;;5110337;28;20032;-59
2021/01/25 07:44:01;;;;;;;13.30;7.55;;;;;;;;;;5110920;28;20031;-59
2021/01/25 07:46:27;;;;;;;15.50;8.45;;;;;;;;;;5111344;28;20372;-59
2021/01/25 07:48:53;;;;;;;14.02;9.52;;;;;;;;;;5112610;28;20027;-58
2021/01/25 07:51:24;;;;;;;14.88;8.80;;;;;;;;;;5112575;28;20440;-59
2021/01/25 07:53:49;;;;;;;15.15;7.38;;;;;;;;;;5111222;28;20116;-59
2021/01/25 07:56:17;;;;;;;11.20;7.45;;;;;;;;;;5111501;28;20177;-58
2021/01/25 07:58:42;;;;;;;15.88;7.70;;;;;;;;;;5111308;28;20068;-58
2021/01/25 08:01:12;;;;;;;16.35;7.65;;;;;;;;;;5103784;28;20878;-58
2021/01/25 08:03:41;;;;;;;11.40;8.02;;;;;;;;;;5108360;28;20058;-59
2021/01/25 08:06:07;;;;;;;13.00;8.48;;;;;;;;;;5110087;28;20521;-59
2021/01/25 08:08:33;;;;;;;10.52;8.20;;;;;;;;;;5109386;28;20043;-59
2021/01/25 08:10:59;;;;;;;11.50;7.97;;;;;;;;;;5111209;28;20039;-59
2021/01/25 08:13:30;;;;;;;17.75;8.27;;;;;;;;;;5111155;28;20407;-59
2021/01/25 08:16:27;;;;;;;13.35;8.27;;;;;;;;;;5108537;28;20372;-59
2021/01/25 08:19:12;;;;;;;12.93;7.80;;;;;;;;;;5103479;28;20067;-59
2021/01/25 08:21:44;;;;;;;14.10;9.18;;;;;;;;;;5109433;28;20582;-59
2021/01/25 08:24:12;;;;;;;13.98;9.02;;;;;;;;;;5111021;28;20042;-59
2021/01/25 08:26:38;;;;;;;14.98;8.13;;;;;;;;;;5109505;28;20050;-59
2021/01/25 08:29:14;;;;;;;13.30;7.80;;;;;;;;;;5110107;28;20039;-58
2021/01/25 08:31:43;;;;;;;14.55;9.82;;;;;;;;;;5110532;28;20352;-59
2021/01/25 08:34:28;;;;;;;12.68;9.20;;;;;;;;;;5110141;28;20031;-59
2021/01/25 08:37:10;;;;;;;12.13;8.23;;;;;;;;;;5110578;28;20042;-59
2021/01/25 08:39:45;;;;;;;;;;;;;;;;;;5110885;28;20502;-59
2021/01/25 08:42:20;;;;;;;16.33;9.13;;;;;;;;;;5109112;28;19959;-59
2021/01/25 08:44:52;;;;;;;12.50;8.02;;;;;;;;;;5110620;28;20061;-59
2021/01/25 08:47:29;;;;;;;19.05;8.85;;;;;;;;;;5110469;28;20036;-57
2021/01/25 08:49:54;;;;;;;15.85;7.78;;;;;;;;;;5110300;28;20414;-59
2021/01/25 08:52:32;;;;;;;12.68;8.65;;;;;;;;;;5108060;28;20031;-58
2021/01/25 08:55:23;;;;;;;15.48;10.18;;;;;;;;;;5107104;28;20110;-59
2021/01/25 08:57:49;;;;;;;15.77;9.60;;;;;;;;;;5090053;27;586184;-59
2021/01/25 09:00:18;;;;;;;15.90;10.35;;;;;;;;;;5110593;28;20046;-57
2021/01/25 09:02:45;;;;;;;12.30;10.05;;;;;;;;;;5110482;28;20027;-59
2021/01/25 09:05:12;;;;;;;13.35;9.07;;;;;;;;;;5111548;28;20031;-59
2021/01/25 09:07:38;;;;;;;15.95;10.73;;;;;;;;;;5109850;28;20138;-59
2021/01/25 09:10:05;;;;;;;13.95;10.00;;;;;;;;;;5110173;28;20126;-59
2021/01/25 09:12:30;;;;;;;13.43;9.75;;;;;;;;;;5111048;28;20115;-59
2021/01/25 09:14:55;;;;;;;14.13;11.00;;;;;;;;;;5111431;28;20714;-59
2021/01/25 09:17:24;;;;;;;13.68;10.00;;;;;;;;;;5109395;28;20042;-59
2021/01/25 09:19:49;;;;;;;14.20;10.05;;;;;;;;;;5109811;28;20024;-59
2021/01/25 09:22:15;;;;;;;15.95;10.82;;;;;;;;;;5111111;28;20045;-58
2021/01/25 09:24:41;;;;;;;20.42;12.73;;;;;;;;;;5108478;28;20088;-59
2021/01/25 09:27:07;;;;;;;21.80;13.85;;;;;;;;;;5109017;28;20106;-58
2021/01/25 09:29:32;;;;;;;24.60;13.48;;;;;;;;;;5110687;28;20088;-59
2021/01/25 09:31:58;;;;;;;17.83;12.15;;;;;;;;;;5110740;28;20036;-58
2021/01/25 09:34:24;;;;;;;21.48;14.73;;;;;;;;;;5107481;28;20467;-59
2021/01/25 09:36:50;;;;;;;18.70;13.80;;;;;;;;;;5110660;28;20359;-57
2021/01/25 09:39:17;;;;;;;17.05;11.88;;;;;;;;;;5110889;28;20039;-59
2021/01/25 09:41:46;;;;;;;16.05;10.75;;;;;;;;;;5109833;28;20091;-59
2021/01/25 09:44:13;;;;;;;16.30;10.60;;;;;;;;;;5109798;28;20437;-57
2021/01/25 09:46:39;;;;;;;19.77;10.82;;;;;;;;;;5109889;28;20110;-56
2021/01/25 09:49:05;;;;;;;14.80;11.73;;;;;;;;;;5110782;28;20039;-57
2021/01/25 09:51:30;;;;;;;17.25;12.00;;;;;;;;;;5110196;28;20050;-58
2021/01/25 09:53:55;;;;;;;12.27;10.15;;;;;;;;;;5109238;28;20042;-57
2021/01/25 09:56:21;;;;;;;18.25;12.02;;;;;;;;;;5109886;28;20031;-58
2021/01/25 09:58:46;;;;;;;13.18;10.93;;;;;;;;;;5110423;28;20507;-58
2021/01/25 10:01:12;;;;;;;16.63;11.80;;;;;;;;;;5110191;28;20369;-58
2021/01/25 10:03:37;;;;;;;16.05;12.18;;;;;;;;;;5109152;28;20438;-58
2021/01/25 10:06:03;;;;;;;15.85;11.48;;;;;;;;;;5110045;28;20042;-58
2021/01/25 10:08:28;;;;;;;14.77;12.45;;;;;;;;;;5109099;28;20038;-59
2021/01/25 10:10:53;;;;;;;16.92;12.00;;;;;;;;;;5108443;28;20148;-59
2021/01/25 10:13:19;;;;;;;13.82;11.98;;;;;;;;;;5109637;28;20364;-59
2021/01/25 10:15:44;;;;;;;16.20;12.60;;;;;;;;;;5109728;28;20667;-59
2021/01/25 10:18:09;;;;;;;13.73;11.55;;;;;;;;;;5108970;28;20027;-58
2021/01/25 10:20:36;;;;;;;15.40;12.07;;;;;;;;;;5109263;28;20425;-59
2021/01/25 10:23:02;;;;;;;14.77;11.77;;;;;;;;;;5109961;28;20042;-59
2021/01/25 10:25:27;;;;;;;16.55;12.25;;;;;;;;;;5108703;28;20035;-59
2021/01/25 10:27:53;;;;;;;14.30;11.98;;;;;;;;;;5108856;28;20439;-59
2021/01/25 10:30:20;;;;;;;17.80;12.30;;;;;;;;;;5109525;28;20457;-59
2021/01/25 10:32:45;;;;;;;17.05;12.50;;;;;;;;;;5109269;28;20108;-59
2021/01/25 10:35:12;;;;;;;18.50;13.88;;;;;;;;;;5109561;28;20589;-59
2021/01/25 10:37:38;;;;;;;16.00;12.70;;;;;;;;;;5104734;28;20040;-59
2021/01/25 10:40:05;;;;;;;14.93;12.38;;;;;;;;;;5107982;28;20378;-59
2021/01/25 10:42:30;;;;;;;17.75;13.18;;;;;;;;;;5108560;28;20114;-59
2021/01/25 10:44:56;;;;;;;17.63;14.77;;;;;;;;;;5106611;28;20536;-59
2021/01/25 10:47:21;;;;;;;17.90;13.70;;;;;;;;;;5108741;28;20172;-58
2021/01/25 10:49:50;;;;;;;15.80;13.55;;;;;;;;;;5109749;28;20031;-59
2021/01/25 10:52:16;;;;;;;22.20;13.75;;;;;;;;;;5107523;28;20035;-58
2021/01/25 10:54:42;;;;;;;14.13;12.70;;;;;;;;;;5108314;28;20036;-58
2021/01/25 10:57:08;;;;;;;21.85;13.77;;;;;;;;;;5109242;28;20498;-59
2021/01/25 10:59:34;;;;;;;19.20;14.55;;;;;;;;;;5109165;28;20044;-58
2021/01/25 11:02:00;;;;;;;15.15;13.50;;;;;;;;;;5108325;28;20035;-59
2021/01/25 11:04:25;;;;;;;15.40;13.40;;;;;;;;;;5109178;28;20039;-59
2021/01/25 11:06:51;;;;;;;15.60;12.77;;;;;;;;;;5109609;28;20043;-59
2021/01/25 11:09:17;;;;;;;17.40;13.60;;;;;;;;;;5106684;28;20520;-58
2021/01/25 11:11:42;;;;;;;16.17;14.27;;;;;;;;;;5108399;28;20028;-58
2021/01/25 11:14:08;;;;;;;17.33;13.77;;;;;;;;;;5109280;28;20357;-58
2021/01/25 11:16:33;;;;;;;17.13;14.20;;;;;;;;;;5100397;28;20024;-59
2021/01/25 11:18:59;;;;;;;18.90;13.23;;;;;;;;;;5099466;28;20036;-59
2021/01/25 11:21:24;;;;;;;17.58;12.75;;;;;;;;;;5105117;28;20100;-59
2021/01/25 11:23:50;;;;;;;15.90;13.55;;;;;;;;;;5106470;28;20457;-59
2021/01/25 11:26:19;;;;;;;14.60;13.02;;;;;;;;;;5106208;28;20032;-59
2021/01/25 11:28:46;;;;;;;17.17;13.82;;;;;;;;;;5106666;28;20032;-59
2021/01/25 11:31:12;;;;;;;18.63;14.90;;;;;;;;;;5105942;28;20126;-59
2021/01/25 11:33:38;;;;;;;16.60;14.32;;;;;;;;;;5103292;28;20146;-58
2021/01/25 11:36:03;;;;;;;19.25;16.02;;;;;;;;;;5106284;28;20043;-58
2021/01/25 11:38:29;;;;;;;21.55;13.15;;;;;;;;;;5104479;28;20078;-58
2021/01/25 11:40:55;;;;;;;15.13;12.45;;;;;;;;;;5105331;28;20036;-58
2021/01/25 11:43:20;;;;;;;15.10;11.60;;;;;;;;;;5106002;28;20031;-59
2021/01/25 11:45:46;;;;;;;18.90;12.15;;;;;;;;;;5105673;28;20083;-59
2021/01/25 11:48:11;;;;;;;13.07;10.88;;;;;;;;;;5105809;28;20043;-59
2021/01/25 11:50:36;;;;;;;13.43;11.45;;;;;;;;;;5106263;28;20039;-58
2021/01/25 11:53:02;;;;;;;16.42;11.43;;;;;;;;;;5109400;28;20039;-58
2021/01/25 11:55:27;;;;;;;14.65;11.57;;;;;;;;;;5109659;28;20535;-58
2021/01/25 11:57:53;;;;;;;13.32;10.80;;;;;;;;;;5106498;28;20478;-58
2021/01/25 12:00:18;;;;;;;14.27;11.63;;;;;;;;;;5107928;28;20035;-59
2021/01/25 12:02:44;;;;;;;16.23;11.50;;;;;;;;;;5110009;28;20031;-59
2021/01/25 12:05:11;;;;;;;15.20;11.55;;;;;;;;;;5106889;28;20035;-59
2021/01/25 12:07:36;;;;;;;17.05;10.77;;;;;;;;;;5107305;28;20031;-59
2021/01/25 12:10:04;;;;;;;12.15;10.25;;;;;;;;;;5108278;28;20040;-59
2021/01/25 12:12:29;;;;;;;12.65;10.23;;;;;;;;;;5108456;28;20046;-59
2021/01/25 12:14:55;;;;;;;12.95;10.85;;;;;;;;;;5109086;28;20031;-59
2021/01/25 12:17:20;;;;;;;13.00;10.85;;;;;;;;;;5107072;28;20050;-59
2021/01/25 12:19:45;;;;;;;12.23;10.05;;;;;;;;;;5107478;28;20376;-59
2021/01/25 12:22:11;;;;;;;11.82;10.48;;;;;;;;;;5109025;28;20101;-59
2021/01/25 12:24:36;;;;;;;14.60;10.95;;;;;;;;;;5108789;28;20035;-59
2021/01/25 12:27:01;;;;;;;15.30;10.95;;;;;;;;;;5108851;28;20392;-60
2021/01/25 12:29:27;;;;;;;13.20;10.73;;;;;;;;;;5108582;28;20035;-59
2021/01/25 12:31:52;;;;;;;14.20;10.63;;;;;;;;;;5108709;28;20471;-59
2021/01/25 12:34:18;;;;;;;13.45;11.05;;;;;;;;;;5109173;28;20364;-59
2021/01/25 12:36:43;;;;;;;14.07;11.75;;;;;;;;;;5108905;27;20255;-59
2021/01/25 12:39:08;;;;;;;12.57;11.07;;;;;;;;;;5109221;28;20967;-59
2021/01/25 12:41:34;;;;;;;15.50;11.60;;;;;;;;;;5108880;28;20035;-59
2021/01/25 12:44:01;;;;;;;10.95;9.60;;;;;;;;;;5108406;28;20047;-59
2021/01/25 12:46:27;;;;;;;15.48;10.95;;;;;;;;;;5107536;28;20615;-59
2021/01/25 12:48:52;;;;;;;11.32;9.82;;;;;;;;;;5109025;28;20027;-58
2021/01/25 12:51:17;;;;;;;12.52;9.85;;;;;;;;;;5107762;28;20460;-58
2021/01/25 12:53:43;;;;;;;18.45;12.80;;;;;;;;;;5108703;28;20043;-58
2021/01/25 12:56:08;;;;;;;12.95;11.55;;;;;;;;;;5107777;28;20050;-58
2021/01/25 12:58:33;;;;;;;12.98;11.07;;;;;;;;;;5108515;28;20032;-57
2021/01/25 13:00:59;;;;;;;13.98;11.07;;;;;;;;;;5108270;28;20027;-58
2021/01/25 13:03:24;;;;;;;16.05;11.93;;;;;;;;;;5105942;28;20027;-58
2021/01/25 13:05:50;;;;;;;15.38;11.75;;;;;;;;;;5108782;28;20860;-58
2021/01/25 13:08:15;;;;;;;13.27;10.75;;;;;;;;;;5108513;28;20040;-55
2021/01/25 13:10:40;;;;;;;14.52;12.98;;;;;;;;;;5107746;28;20368;-59
2021/01/25 13:13:06;;;;;;;13.25;11.27;;;;;;;;;;5106694;28;20276;-59
2021/01/25 13:15:34;;;;;;;15.80;12.07;;;;;;;;;;5107978;28;20679;-58
2021/01/25 13:18:00;;;;;;;12.98;11.05;;;;;;;;;;5107380;28;20373;-59
2021/01/25 13:20:28;;;;;;;14.48;11.95;;;;;;;;;;5105692;28;20479;-59
2021/01/25 13:22:54;;;;;;;13.48;11.23;;;;;;;;;;5099998;28;20036;-59
2021/01/25 13:25:20;;;;;;;13.32;11.45;;;;;;;;;;5104411;28;20035;-59
2021/01/25 13:27:45;;;;;;;13.57;11.88;;;;;;;;;;5103022;28;20027;-59
2021/01/25 13:30:14;;;;;;;13.25;11.85;;;;;;;;;;5102909;28;20042;-59
2021/01/25 13:32:40;;;;;;;14.38;11.80;;;;;;;;;;5102916;28;20036;-60
2021/01/25 13:35:08;;;;;;;13.10;11.70;;;;;;;;;;5104760;28;20042;-58
2021/01/25 13:37:34;;;;;;;12.52;11.02;;;;;;;;;;5104733;28;20040;-58
2021/01/25 13:40:00;;;;;;;15.38;11.50;;;;;;;;;;5105516;28;20550;-60
2021/01/25 13:42:25;;;;;;;12.75;11.00;;;;;;;;;;5106732;28;20696;-58
2021/01/25 13:44:50;;;;;;;14.20;12.05;;;;;;;;;;5108040;28;20047;-58
2021/01/25 13:47:16;;;;;;;15.63;11.10;;;;;;;;;;5107734;28;20593;-58
2021/01/25 13:49:41;;;;;;;13.38;11.60;;;;;;;;;;5106348;28;20110;-58
2021/01/25 13:52:11;;;;;;;13.40;11.80;;;;;;;;;;5106753;28;20043;-58
2021/01/25 13:54:37;;;;;;;13.80;11.93;;;;;;;;;;5105926;28;20043;-58
2021/01/25 13:57:02;;;;;;;12.45;10.98;;;;;;;;;;5107328;28;20031;-58
2021/01/25 13:59:27;;;;;;;13.75;11.45;;;;;;;;;;5107103;28;20126;-58
2021/01/25 14:01:53;;;;;;;13.55;11.65;;;;;;;;;;5106455;28;20031;-58
2021/01/25 14:04:18;;;;;;;14.32;11.63;;;;;;;;;;5106834;28;20035;-58
2021/01/25 14:06:43;;;;;;;14.25;11.52;;;;;;;;;;5106988;28;20082;-58
2021/01/25 14:09:09;;;;;;;13.77;11.80;;;;;;;;;;5106277;28;20035;-58
2021/01/25 14:11:34;;;;;;;12.05;10.75;;;;;;;;;;5103161;28;20036;-58
2021/01/25 14:13:59;;;;;;;17.33;12.30;;;;;;;;;;5105085;28;20032;-58
2021/01/25 14:16:25;;;;;;;14.32;12.82;;;;;;;;;;5103889;28;20571;-58
2021/01/25 14:18:50;;;;;;;14.13;12.23;;;;;;;;;;5103203;28;20051;-58
2021/01/25 14:21:18;;;;;;;14.45;12.77;;;;;;;;;;5103161;28;20410;-58
2021/01/25 14:23:43;;;;;;;13.60;11.98;;;;;;;;;;5104892;28;20032;-59
2021/01/25 14:26:08;;;;;;;13.45;11.45;;;;;;;;;;5105756;28;20036;-58
2021/01/25 14:28:34;;;;;;;15.80;12.68;;;;;;;;;;5104835;28;20035;-58